Time;durP1;ratioP1;P1;durP2;ratioP2;P2;SDS_P1;SDS_P2;PMS_P1;PMS_P2;Temp;Humidity;BMP_temperature;BMP_pressure;BME280_temperature;BME280_humidity;BME280_pressure;Samples;Min_cycle;Max_cycle;Signal;HPM_P1;HPM_P2
2022/07/21 00:01:07;;;;;;;11.07;9.32;;;20.40;99.90;;;;;;5066802;28;20096;-58
2022/07/21 00:03:33;;;;;;;10.52;9.52;;;20.40;99.90;;;;;;5053606;28;20425;-57
2022/07/21 00:05:59;;;;;;;10.57;8.60;;;20.40;99.90;;;;;;5074304;28;20039;-58
2022/07/21 00:08:25;;;;;;;13.77;9.82;;;20.40;99.90;;;;;;5071339;28;20024;-59
2022/07/21 00:10:50;;;;;;;10.93;9.25;;;20.30;99.90;;;;;;5076082;28;20039;-59
2022/07/21 00:13:16;;;;;;;10.38;8.13;;;20.30;99.90;;;;;;5073220;28;20021;-58
2022/07/21 00:15:42;;;;;;;12.48;9.27;;;20.20;99.90;;;;;;5063731;28;20398;-58
2022/07/21 00:18:07;;;;;;;10.20;8.68;;;20.20;99.90;;;;;;5068073;28;20036;-57
2022/07/21 00:20:34;;;;;;;11.30;9.88;;;20.20;99.90;;;;;;5075071;28;20024;-60
2022/07/21 00:22:59;;;;;;;16.63;10.40;;;20.20;99.90;;;;;;5071309;28;20149;-60
2022/07/21 00:25:25;;;;;;;12.68;9.32;;;20.20;99.90;;;;;;5069855;28;20025;-59
2022/07/21 00:27:51;;;;;;;12.70;9.55;;;20.10;99.90;;;;;;5076984;28;20017;-58
2022/07/21 00:30:17;;;;;;;13.75;9.35;;;20.10;99.90;;;;;;5077879;28;20020;-60
2022/07/21 00:32:43;;;;;;;15.05;10.13;;;20.00;99.90;;;;;;5075256;28;20029;-59
2022/07/21 00:35:10;;;;;;;14.05;9.60;;;20.00;99.90;;;;;;5072476;28;20099;-58
2022/07/21 00:37:37;;;;;;;11.98;9.52;;;19.90;99.90;;;;;;5075952;28;20032;-60
2022/07/21 00:40:04;;;;;;;13.45;9.38;;;19.80;99.90;;;;;;5054853;28;20029;-61
2022/07/21 00:42:31;;;;;;;13.45;9.70;;;19.80;99.90;;;;;;5074830;28;20398;-60
2022/07/21 00:44:58;;;;;;;13.73;10.23;;;19.80;99.90;;;;;;5065213;28;20040;-60
2022/07/21 00:47:26;;;;;;;17.05;10.13;;;19.70;99.90;;;;;;5073136;28;20032;-59
2022/07/21 00:49:51;;;;;;;13.85;9.52;;;19.70;99.90;;;;;;5051353;28;20029;-60
2022/07/21 00:52:17;;;;;;;12.57;9.55;;;19.60;99.90;;;;;;5075720;28;20024;-60
2022/07/21 00:54:44;;;;;;;11.80;9.60;;;19.60;99.90;;;;;;5065125;28;20421;-60
2022/07/21 00:57:10;;;;;;;9.85;8.50;;;19.50;99.90;;;;;;5072525;28;20063;-60
2022/07/21 00:59:36;;;;;;;10.43;9.32;;;19.50;99.90;;;;;;5071786;28;20032;-59
2022/07/21 01:02:02;;;;;;;11.38;8.88;;;19.50;99.90;;;;;;5058709;28;20071;-59
2022/07/21 01:04:28;;;;;;;11.35;8.82;;;19.50;99.90;;;;;;5108022;22;20398;-51
2022/07/21 01:06:55;;;;;;;15.23;10.00;;;19.50;99.90;;;;;;5108248;28;20030;-51
2022/07/21 01:09:21;;;;;;;13.85;10.32;;;19.40;99.90;;;;;;5104952;28;20028;-51
2022/07/21 01:11:47;;;;;;;12.25;9.88;;;19.40;99.90;;;;;;5107971;28;20098;-53
2022/07/21 01:14:12;;;;;;;13.73;10.00;;;19.40;99.90;;;;;;5101518;28;20161;-57
2022/07/21 01:16:39;;;;;;;14.80;9.75;;;19.30;99.90;;;;;;5101579;28;20076;-56
2022/07/21 01:19:06;;;;;;;11.52;9.38;;;19.30;99.90;;;;;;5101476;28;20035;-54
2022/07/21 01:21:35;;;;;;;11.23;9.43;;;19.20;99.90;;;;;;5087052;28;20030;-55
2022/07/21 01:24:02;;;;;;;11.98;9.57;;;19.20;99.90;;;;;;5105018;28;20110;-56
2022/07/21 01:26:28;;;;;;;12.85;9.93;;;19.10;99.90;;;;;;5105879;28;20064;-55
2022/07/21 01:28:55;;;;;;;11.95;9.98;;;19.10;99.90;;;;;;5087422;28;20030;-55
2022/07/21 01:31:21;;;;;;;14.98;9.57;;;19.10;99.90;;;;;;5109431;28;20050;-54
2022/07/21 01:33:47;;;;;;;10.70;9.13;;;19.10;99.90;;;;;;5109068;28;20426;-54
2022/07/21 01:36:13;;;;;;;13.60;9.93;;;19.10;99.90;;;;;;5108737;28;20055;-54
2022/07/21 01:41:28;;;;;;;14.75;9.13;;;19.10;99.90;;;;;;5100783;28;20039;-53
2022/07/21 01:43:54;;;;;;;13.38;10.20;;;19.20;99.90;;;;;;5104433;28;20028;-51
2022/07/21 01:46:20;;;;;;;11.45;10.30;;;19.10;99.90;;;;;;5106088;28;20023;-58
2022/07/21 01:48:45;;;;;;;11.48;10.00;;;19.00;99.90;;;;;;5106174;28;20397;-53
2022/07/21 01:51:11;;;;;;;11.65;9.60;;;19.00;99.90;;;;;;5101568;28;20058;-52
2022/07/21 01:53:37;;;;;;;13.15;10.38;;;19.00;99.90;;;;;;5101318;28;20038;-54
2022/07/21 01:56:03;;;;;;;13.77;10.27;;;19.00;99.90;;;;;;5108748;28;20089;-51
2022/07/21 01:58:30;;;;;;;15.30;10.68;;;19.10;99.90;;;;;;5087151;28;20402;-53
2022/07/21 02:00:55;;;;;;;13.32;11.25;;;19.00;99.90;;;;;;5107315;28;20103;-52
2022/07/21 02:03:21;;;;;;;13.25;11.57;;;19.00;99.90;;;;;;5108714;28;20737;-54
2022/07/21 02:05:46;;;;;;;17.35;11.50;;;19.00;99.90;;;;;;5108102;28;20358;-53
2022/07/21 02:08:12;;;;;;;15.52;11.75;;;18.90;99.90;;;;;;5104704;28;20127;-52
2022/07/21 02:10:38;;;;;;;14.23;10.82;;;18.90;99.90;;;;;;5099633;28;20170;-51
2022/07/21 02:13:03;;;;;;;16.05;11.52;;;18.80;99.90;;;;;;5107704;28;20040;-52
2022/07/21 02:15:30;;;;;;;15.50;10.48;;;18.80;99.90;;;;;;5104518;28;20034;-55
2022/07/21 02:17:56;;;;;;;15.18;11.02;;;18.80;99.90;;;;;;5103912;28;20055;-54
2022/07/21 02:20:22;;;;;;;14.15;10.32;;;18.80;99.90;;;;;;5106003;28;20030;-54
2022/07/21 02:22:48;;;;;;;17.55;10.88;;;18.70;99.90;;;;;;5103902;28;20042;-54
2022/07/21 02:25:14;;;;;;;13.63;11.18;;;18.80;99.90;;;;;;5104603;28;20024;-52
2022/07/21 02:27:41;;;;;;;12.85;10.00;;;18.80;99.90;;;;;;5112183;28;20497;-51
2022/07/21 02:30:07;;;;;;;15.63;11.82;;;18.70;99.90;;;;;;5106851;28;20036;-52
2022/07/21 02:32:32;;;;;;;18.80;11.52;;;18.70;99.90;;;;;;5112724;28;20549;-51
2022/07/21 02:34:58;;;;;;;14.75;10.82;;;18.60;99.90;;;;;;5108220;28;20102;-51
2022/07/21 02:37:23;;;;;;;14.80;11.60;;;18.60;99.90;;;;;;5112957;28;20047;-53
2022/07/21 02:39:49;;;;;;;16.75;10.25;;;18.60;99.90;;;;;;5094157;28;20020;-50
2022/07/21 02:42:15;;;;;;;13.80;10.75;;;18.60;99.90;;;;;;5110016;28;20102;-52
2022/07/21 02:44:41;;;;;;;18.80;11.02;;;18.60;99.90;;;;;;5106771;28;20039;-52
2022/07/21 02:47:06;;;;;;;15.93;11.13;;;18.60;99.90;;;;;;5111283;28;20603;-52
2022/07/21 02:49:32;;;;;;;15.35;11.02;;;18.50;99.90;;;;;;5108496;28;20067;-52
2022/07/21 02:51:58;;;;;;;13.82;11.10;;;18.50;99.90;;;;;;5108148;28;20028;-54
2022/07/21 02:54:24;;;;;;;16.70;12.52;;;18.50;99.90;;;;;;5106670;28;20031;-52
2022/07/21 02:56:49;;;;;;;16.83;11.68;;;18.50;99.90;;;;;;5103267;28;20501;-51
2022/07/21 02:59:15;;;;;;;15.30;12.15;;;18.50;99.90;;;;;;5111863;28;20438;-50
2022/07/21 03:01:41;;;;;;;16.02;12.27;;;18.40;99.90;;;;;;5106551;28;20038;-51
2022/07/21 03:04:06;;;;;;;12.80;11.48;;;18.40;99.90;;;;;;5107055;28;20428;-51
2022/07/21 03:06:32;;;;;;;14.32;11.73;;;18.40;99.90;;;;;;5109067;28;20055;-51
2022/07/21 03:08:58;;;;;;;18.42;11.68;;;18.40;99.90;;;;;;5111719;28;20399;-55
2022/07/21 03:11:24;;;;;;;15.13;12.18;;;18.40;99.90;;;;;;5105853;28;20634;-51
2022/07/21 03:13:49;;;;;;;14.45;12.30;;;18.40;99.90;;;;;;5108448;28;20027;-52
2022/07/21 03:16:15;;;;;;;21.42;14.85;;;18.40;99.90;;;;;;5112394;28;20047;-51
2022/07/21 03:18:41;;;;;;;20.95;14.10;;;18.30;99.90;;;;;;5111403;28;20559;-52
2022/07/21 03:21:07;;;;;;;19.02;13.65;;;18.30;99.90;;;;;;5093023;28;20067;-51
2022/07/21 03:23:33;;;;;;;15.45;12.60;;;18.30;99.90;;;;;;5100197;28;20082;-50
2022/07/21 03:25:58;;;;;;;19.30;13.85;;;18.40;99.90;;;;;;5092803;28;20493;-50
2022/07/21 03:28:24;;;;;;;15.20;13.20;;;18.30;99.90;;;;;;5111252;28;20033;-53
2022/07/21 03:30:49;;;;;;;17.48;13.27;;;18.40;99.90;;;;;;5107012;28;20027;-55
2022/07/21 03:33:15;;;;;;;18.42;13.23;;;18.30;99.90;;;;;;5107948;28;20024;-55
2022/07/21 03:35:41;;;;;;;17.75;13.45;;;18.30;99.90;;;;;;5100096;28;20690;-56
2022/07/21 03:38:07;;;;;;;19.25;14.23;;;18.30;99.90;;;;;;5090998;28;20027;-52
2022/07/21 03:40:35;;;;;;;22.70;15.18;;;18.30;99.90;;;;;;5109711;28;20023;-54
2022/07/21 03:43:03;;;;;;;17.38;14.38;;;18.30;99.90;;;;;;5111128;28;20042;-52
2022/07/21 03:45:30;;;;;;;19.77;14.48;;;18.30;99.90;;;;;;5105111;28;20243;-51
2022/07/21 03:48:01;;;;;;;14.10;12.65;;;18.30;99.90;;;;;;5110707;28;20019;-55
2022/07/21 03:50:27;;;;;;;17.80;12.48;;;18.30;99.90;;;;;;5104885;28;20114;-56
2022/07/21 03:52:53;;;;;;;16.23;12.70;;;18.30;99.90;;;;;;5110352;28;20113;-53
2022/07/21 03:55:19;;;;;;;15.40;11.60;;;18.40;99.90;;;;;;5110912;28;20028;-51
2022/07/21 03:57:52;;;;;;;23.92;12.60;;;18.40;99.90;;;;;;5110860;28;20024;-52
2022/07/21 04:00:29;;;;;;;16.00;10.50;;;18.40;99.90;;;;;;5101644;28;20035;-52
2022/07/21 04:02:56;;;;;;;17.58;11.02;;;18.50;99.90;;;;;;5083084;28;20129;-49
2022/07/21 04:05:22;;;;;;;15.00;10.32;;;18.50;99.90;;;;;;5110489;28;20157;-52
2022/07/21 04:07:50;;;;;;;14.95;9.93;;;18.50;99.90;;;;;;5110981;28;20043;-52
2022/07/21 04:10:18;;;;;;;16.73;9.93;;;18.50;99.90;;;;;;5108405;28;20104;-52
2022/07/21 04:12:44;;;;;;;14.23;9.27;;;18.50;99.90;;;;;;5109614;28;20032;-52
2022/07/21 04:15:11;;;;;;;15.95;9.15;;;18.50;99.90;;;;;;5106204;28;20038;-52
2022/07/21 04:17:38;;;;;;;17.23;8.73;;;18.60;99.90;;;;;;5106385;28;20466;-51
2022/07/21 04:20:05;;;;;;;11.77;7.43;;;18.60;99.90;;;;;;5107807;28;20035;-50
2022/07/21 04:22:30;;;;;;;12.82;7.75;;;18.70;99.90;;;;;;5091361;28;20440;-53
2022/07/21 04:24:56;;;;;;;15.00;7.10;;;18.70;99.90;;;;;;5110029;28;20039;-52
2022/07/21 04:27:21;;;;;;;13.90;7.38;;;18.70;99.90;;;;;;5109916;28;20026;-55
2022/07/21 04:29:47;;;;;;;9.23;6.47;;;18.80;99.90;;;;;;5104837;28;20098;-52
2022/07/21 04:32:13;;;;;;;15.35;7.45;;;18.80;99.90;;;;;;5105922;28;20023;-54
2022/07/21 04:34:38;;;;;;;11.70;6.07;;;18.90;99.90;;;;;;5105635;28;20716;-52
2022/07/21 04:37:04;;;;;;;9.90;6.07;;;19.00;99.90;;;;;;5109606;28;20028;-50
2022/07/21 04:39:30;;;;;;;13.63;6.63;;;19.00;99.90;;;;;;5109959;28;20027;-51
2022/07/21 04:41:55;;;;;;;12.07;6.00;;;19.10;99.90;;;;;;5109982;28;20397;-52
2022/07/21 04:44:21;;;;;;;10.57;6.13;;;19.10;99.90;;;;;;5109442;28;20035;-50
2022/07/21 04:46:47;;;;;;;11.40;5.95;;;19.10;99.90;;;;;;5109040;28;20473;-52
2022/07/21 04:49:13;;;;;;;11.00;5.85;;;19.20;99.90;;;;;;5090934;28;20027;-53
2022/07/21 04:51:40;;;;;;;10.75;6.40;;;19.20;99.90;;;;;;5110042;28;20020;-50
2022/07/21 04:54:06;;;;;;;12.60;5.57;;;19.30;99.90;;;;;;5109364;28;20023;-54
2022/07/21 04:56:32;;;;;;;10.23;5.97;;;19.30;99.90;;;;;;5110038;28;20016;-53
2022/07/21 04:58:58;;;;;;;10.88;5.32;;;19.30;99.90;;;;;;5106109;28;20811;-53
2022/07/21 05:01:24;;;;;;;9.10;5.93;;;19.40;99.90;;;;;;5109100;28;20035;-56
2022/07/21 05:03:49;;;;;;;10.00;5.60;;;19.40;99.90;;;;;;5101822;28;20039;-54
2022/07/21 05:06:15;;;;;;;13.43;5.32;;;19.50;99.90;;;;;;5090610;28;20031;-53
2022/07/21 05:08:40;;;;;;;10.68;5.25;;;19.50;99.90;;;;;;5103238;28;20020;-53
2022/07/21 05:11:06;;;;;;;12.20;5.72;;;19.50;99.90;;;;;;5089929;28;20029;-50
2022/07/21 05:13:32;;;;;;;12.02;5.05;;;19.50;99.90;;;;;;5108142;28;20406;-48
2022/07/21 05:15:57;;;;;;;9.77;5.15;;;19.60;99.90;;;;;;5091096;28;20054;-54
2022/07/21 05:18:23;;;;;;;12.50;5.72;;;19.60;99.90;;;;;;5101683;28;20049;-51
2022/07/21 05:20:48;;;;;;;10.07;4.72;;;19.60;99.90;;;;;;5109906;28;20084;-55
2022/07/21 05:23:14;;;;;;;9.73;4.65;;;19.60;99.90;;;;;;5086241;28;20020;-56
2022/07/21 05:25:39;;;;;;;9.18;4.72;;;19.70;99.90;;;;;;5106196;28;20028;-56
2022/07/21 05:28:06;;;;;;;10.48;4.80;;;19.70;99.90;;;;;;5102996;28;20427;-50
2022/07/21 05:30:32;;;;;;;5.80;4.70;;;19.70;99.90;;;;;;5094969;28;20439;-53
2022/07/21 05:32:57;;;;;;;9.30;4.63;;;19.70;99.90;;;;;;5098097;28;20032;-55
2022/07/21 05:35:23;;;;;;;10.23;5.15;;;19.60;99.90;;;;;;5100564;28;20031;-52
2022/07/21 05:37:48;;;;;;;9.70;5.32;;;19.70;99.90;;;;;;5092803;28;20097;-53
2022/07/21 05:40:15;;;;;;;11.00;5.47;;;19.70;99.90;;;;;;5094148;28;20026;-52
2022/07/21 05:42:41;;;;;;;10.02;5.10;;;19.80;99.90;;;;;;5097663;28;20519;-56
2022/07/21 05:45:08;;;;;;;8.50;4.88;;;19.80;99.90;;;;;;5101887;28;20028;-53
2022/07/21 05:47:33;;;;;;;9.98;4.82;;;19.90;99.90;;;;;;5101414;28;20027;-54
2022/07/21 05:49:59;;;;;;;5.80;3.75;;;19.90;99.90;;;;;;5102112;28;20459;-59
2022/07/21 05:52:25;;;;;;;14.20;4.78;;;19.90;99.90;;;;;;5101373;28;20028;-52
2022/07/21 05:54:51;;;;;;;9.25;4.28;;;19.90;99.90;;;;;;5093828;28;20394;-53
2022/07/21 05:57:18;;;;;;;8.75;4.57;;;19.90;99.90;;;;;;5102176;28;20027;-56
2022/07/21 05:59:45;;;;;;;6.10;4.30;;;19.80;99.90;;;;;;5097264;28;20017;-50
2022/07/21 06:02:11;;;;;;;8.13;4.68;;;19.80;99.90;;;;;;5102292;28;20033;-57
2022/07/21 06:04:36;;;;;;;6.15;3.60;;;19.80;99.90;;;;;;5100787;28;20640;-54
2022/07/21 06:07:02;;;;;;;5.70;4.00;;;19.80;99.90;;;;;;5101970;28;20466;-51
2022/07/21 06:09:27;;;;;;;8.10;4.13;;;19.90;99.90;;;;;;5101186;28;20023;-51
2022/07/21 06:11:53;;;;;;;10.07;3.95;;;19.90;99.90;;;;;;5077341;28;20032;-52
2022/07/21 06:14:19;;;;;;;7.28;3.30;;;19.90;99.90;;;;;;5091284;28;20019;-54
2022/07/21 06:16:45;;;;;;;5.72;3.28;;;20.00;99.90;;;;;;5108565;28;20024;-53
2022/07/21 06:19:10;;;;;;;6.93;3.88;;;20.00;99.90;;;;;;5109207;28;20024;-51
2022/07/21 06:21:36;;;;;;;4.95;4.00;;;20.00;99.90;;;;;;5106124;28;20031;-50
2022/07/21 06:24:02;;;;;;;6.47;4.18;;;20.00;99.90;;;;;;5108365;28;20106;-50
2022/07/21 06:26:28;;;;;;;6.80;3.83;;;20.10;99.90;;;;;;5091262;28;20073;-51
2022/07/21 06:28:54;;;;;;;7.10;3.70;;;20.00;99.90;;;;;;5108011;28;20026;-51
2022/07/21 06:31:19;;;;;;;8.30;3.67;;;20.00;99.90;;;;;;5108965;28;20015;-50
2022/07/21 06:33:45;;;;;;;10.32;4.43;;;20.00;99.90;;;;;;5108468;28;20032;-51
2022/07/21 06:36:11;;;;;;;8.70;3.92;;;20.00;99.90;;;;;;5108199;28;20024;-53
2022/07/21 06:38:36;;;;;;;5.90;3.90;;;20.10;99.90;;;;;;5109026;28;20031;-51
2022/07/21 06:41:02;;;;;;;7.43;3.78;;;20.10;99.90;;;;;;5107225;28;20043;-51
2022/07/21 06:43:28;;;;;;;10.35;4.93;;;20.00;99.90;;;;;;5108707;28;20024;-50
2022/07/21 06:45:54;;;;;;;7.68;5.00;;;20.00;99.90;;;;;;5106149;28;20030;-51
2022/07/21 06:48:21;;;;;;;7.07;4.50;;;20.00;99.90;;;;;;5108790;28;20080;-49
2022/07/21 06:50:47;;;;;;;9.98;4.88;;;20.00;99.90;;;;;;5100832;28;20023;-50
2022/07/21 06:53:13;;;;;;;14.45;5.70;;;20.00;99.90;;;;;;5106987;28;20028;-51
2022/07/21 06:55:38;;;;;;;9.00;5.10;;;20.00;99.90;;;;;;5108048;28;20485;-51
2022/07/21 06:58:14;;;;;;;7.28;4.85;;;19.90;99.90;;;;;;5103289;28;20032;-57
2022/07/21 07:00:40;;;;;;;8.02;4.50;;;19.90;99.90;;;;;;5104691;28;20511;-51
2022/07/21 07:03:05;;;;;;;7.07;4.63;;;19.90;99.90;;;;;;5107430;28;20032;-51
2022/07/21 07:05:31;;;;;;;6.55;4.38;;;19.90;99.90;;;;;;5129521;22;20039;-60
2022/07/21 07:07:57;;;;;;;8.70;4.55;;;19.80;99.90;;;;;;5105412;28;20485;-60
2022/07/21 07:10:23;;;;;;;9.20;4.90;;;19.90;99.90;;;;;;5109410;28;20023;-59
2022/07/21 07:12:48;;;;;;;9.57;5.07;;;19.80;99.90;;;;;;5111648;28;20020;-60
2022/07/21 07:15:14;;;;;;;8.38;5.13;;;19.80;99.90;;;;;;5092353;28;20032;-59
2022/07/21 07:17:40;;;;;;;8.07;4.78;;;19.80;99.90;;;;;;5082670;28;20115;-61
2022/07/21 07:20:07;;;;;;;8.52;5.15;;;19.80;99.90;;;;;;5088609;28;20086;-60
2022/07/21 07:22:33;;;;;;;8.00;5.00;;;19.80;99.90;;;;;;5088183;28;20023;-60
2022/07/21 07:24:59;;;;;;;11.35;5.40;;;19.80;99.90;;;;;;5071205;28;20505;-59
2022/07/21 07:27:24;;;;;;;10.02;5.57;;;19.80;99.90;;;;;;5086021;28;20467;-59
2022/07/21 07:29:50;;;;;;;7.25;4.97;;;19.80;99.90;;;;;;5072380;28;20035;-59
2022/07/21 07:32:16;;;;;;;8.73;4.95;;;19.70;99.90;;;;;;5082925;28;20512;-58
2022/07/21 07:34:41;;;;;;;9.60;5.40;;;19.70;99.90;;;;;;5072852;28;20016;-59
2022/07/21 07:37:07;;;;;;;10.48;6.30;;;19.70;99.90;;;;;;5088435;28;20032;-59
2022/07/21 07:39:33;;;;;;;9.77;5.80;;;19.70;99.90;;;;;;5072210;28;20073;-59
2022/07/21 07:41:59;;;;;;;9.05;5.47;;;19.70;99.90;;;;;;5090162;28;20023;-60
2022/07/21 07:44:24;;;;;;;10.02;6.63;;;19.70;99.90;;;;;;5090389;28;20100;-59
2022/07/21 07:46:50;;;;;;;8.30;5.72;;;19.80;99.90;;;;;;5080557;28;20032;-60
2022/07/21 07:49:16;;;;;;;9.45;5.95;;;19.80;99.90;;;;;;5072651;28;20020;-60
2022/07/21 07:51:42;;;;;;;11.35;6.55;;;19.80;99.90;;;;;;5090094;28;20016;-59
2022/07/21 07:54:08;;;;;;;11.15;6.82;;;19.80;99.90;;;;;;5089625;28;20024;-60
2022/07/21 07:56:33;;;;;;;13.02;8.23;;;19.80;99.90;;;;;;5090764;28;20027;-60
2022/07/21 07:58:59;;;;;;;10.95;7.60;;;19.70;99.90;;;;;;5090750;28;20025;-60
2022/07/21 08:01:25;;;;;;;10.32;7.70;;;19.70;99.90;;;;;;5090635;28;20642;-58
2022/07/21 08:03:51;;;;;;;14.20;8.23;;;19.70;99.90;;;;;;5090368;28;20054;-61
2022/07/21 08:06:17;;;;;;;11.73;7.22;;;19.70;99.90;;;;;;5089822;28;20417;-59
2022/07/21 08:08:42;;;;;;;13.10;9.35;;;19.80;99.90;;;;;;5090713;28;20024;-61
2022/07/21 08:11:09;;;;;;;11.32;8.55;;;19.80;99.90;;;;;;5090626;28;20019;-60
2022/07/21 08:13:35;;;;;;;10.68;7.75;;;19.80;99.90;;;;;;5084873;28;20107;-60
2022/07/21 08:16:00;;;;;;;11.10;8.32;;;19.80;99.90;;;;;;5087945;28;20127;-60
2022/07/21 08:18:27;;;;;;;11.50;7.97;;;19.90;99.90;;;;;;5090509;28;20024;-59
2022/07/21 08:20:52;;;;;;;14.00;9.77;;;19.90;99.90;;;;;;5086616;28;20016;-60
2022/07/21 08:23:18;;;;;;;17.08;10.20;;;20.00;99.90;;;;;;5089195;28;20024;-60
2022/07/21 08:25:44;;;;;;;12.55;8.82;;;20.20;99.90;;;;;;5085809;28;20103;-59
2022/07/21 08:28:09;;;;;;;14.65;9.80;;;20.30;99.90;;;;;;5088221;28;20047;-59
2022/07/21 08:30:36;;;;;;;14.38;9.52;;;20.40;99.90;;;;;;5084646;28;20019;-59
2022/07/21 08:33:02;;;;;;;13.18;9.95;;;20.50;99.90;;;;;;5086880;28;20489;-59
2022/07/21 08:35:28;;;;;;;16.30;9.57;;;20.60;99.90;;;;;;5088987;28;20020;-58
2022/07/21 08:37:58;;;;;;;16.20;11.18;;;20.70;99.90;;;;;;5086381;28;20059;-59
2022/07/21 08:40:25;;;;;;;16.05;11.32;;;20.70;99.90;;;;;;5088929;28;20020;-60
2022/07/21 08:42:52;;;;;;;15.70;11.38;;;20.70;99.90;;;;;;5066761;28;20343;-59
2022/07/21 08:45:18;;;;;;;14.85;11.68;;;20.80;99.90;;;;;;5069614;28;20028;-60
2022/07/21 08:47:44;;;;;;;14.48;11.40;;;21.00;99.90;;;;;;5084366;28;20497;-59
2022/07/21 08:50:10;;;;;;;15.90;11.70;;;21.10;99.90;;;;;;5054893;28;20024;-58
2022/07/21 08:52:35;;;;;;;18.75;11.85;;;21.20;99.90;;;;;;5089368;28;20020;-60
2022/07/21 08:55:02;;;;;;;17.08;12.00;;;21.40;99.90;;;;;;5067949;28;20024;-59
2022/07/21 08:57:28;;;;;;;19.77;11.30;;;21.50;99.90;;;;;;5084619;28;20035;-59
2022/07/21 08:59:53;;;;;;;14.80;11.85;;;21.50;99.90;;;;;;5069910;28;20111;-60
2022/07/21 09:02:26;;;;;;;13.43;10.82;;;21.60;99.90;;;;;;5087225;28;20032;-58
2022/07/21 09:04:53;;;;;;;15.63;12.02;;;21.60;99.90;;;;;;5083807;28;20103;-58
2022/07/21 09:07:19;;;;;;;19.70;12.38;;;21.70;99.90;;;;;;5066341;28;20054;-59
2022/07/21 09:09:56;;;;;;;15.50;12.10;;;21.70;99.90;;;;;;5085571;28;20039;-59
2022/07/21 09:12:21;;;;;;;18.70;14.77;;;21.60;99.90;;;;;;5084913;28;20024;-59
2022/07/21 09:14:48;;;;;;;17.55;13.68;;;21.60;99.90;;;;;;5084334;28;20611;-59
2022/07/21 09:17:17;;;;;;;14.38;11.88;;;21.60;99.90;;;;;;5082113;28;20020;-57
2022/07/21 09:19:45;;;;;;;14.95;12.93;;;21.50;99.90;;;;;;5065129;28;20024;-59
2022/07/21 09:22:18;;;;;;;18.40;13.18;;;21.50;99.90;;;;;;5087395;28;20119;-58
2022/07/21 09:24:49;;;;;;;18.25;14.88;;;21.40;99.90;;;;;;5089126;28;20383;-59
2022/07/21 09:27:18;;;;;;;21.05;15.65;;;21.40;99.90;;;;;;5067921;28;20059;-59
2022/07/21 09:29:43;;;;;;;18.23;15.10;;;21.40;99.90;;;;;;5089111;28;20504;-58
2022/07/21 09:32:37;;;;;;;18.23;14.38;;;21.50;99.90;;;;;;5082195;28;20098;-58
2022/07/21 09:35:06;;;;;;;17.05;13.27;;;21.60;99.90;;;;;;5081514;28;20028;-58
2022/07/21 09:37:32;;;;;;;16.40;14.38;;;21.80;99.90;;;;;;5085215;28;20037;-57
2022/07/21 09:40:06;;;;;;;16.45;14.70;;;21.90;99.90;;;;;;5086316;28;20107;-60
2022/07/21 09:42:35;;;;;;;17.98;13.98;;;22.20;99.90;;;;;;5083540;28;20024;-57
2022/07/21 09:45:05;;;;;;;19.00;16.25;;;22.40;99.90;;;;;;5089042;28;20139;-58
2022/07/21 09:47:32;;;;;;;18.95;14.90;;;22.50;99.90;;;;;;5087892;28;20016;-59
2022/07/21 09:49:58;;;;;;;17.02;14.63;;;22.60;99.90;;;;;;5088588;28;20104;-59
2022/07/21 09:52:32;;;;;;;15.57;14.02;;;22.50;99.90;;;;;;5088045;28;20614;-60
2022/07/21 09:55:06;;;;;;;18.02;14.75;;;22.50;99.90;;;;;;5085265;28;20081;-58
2022/07/21 09:57:32;;;;;;;16.85;13.48;;;22.50;99.90;;;;;;5070121;28;20036;-59
2022/07/21 09:59:59;;;;;;;17.00;14.40;;;22.40;99.90;;;;;;5080637;28;20024;-58
2022/07/21 10:02:26;;;;;;;14.48;12.27;;;22.30;99.90;;;;;;5087085;28;20111;-57
2022/07/21 10:05:06;;;;;;;14.75;12.52;;;22.20;99.90;;;;;;5087639;28;20047;-58
2022/07/21 10:07:35;;;;;;;15.57;13.25;;;22.20;99.90;;;;;;5086870;28;20016;-58
2022/07/21 10:10:01;;;;;;;20.48;13.77;;;22.30;99.90;;;;;;5087706;28;20107;-57
2022/07/21 10:12:27;;;;;;;15.50;13.63;;;22.30;99.90;;;;;;5069784;28;20110;-58
2022/07/21 10:14:54;;;;;;;14.63;13.00;;;22.50;99.90;;;;;;5069889;28;20032;-54
2022/07/21 10:17:21;;;;;;;17.00;14.35;;;22.50;99.90;;;;;;5087704;28;20036;-59
2022/07/21 10:20:07;;;;;;;16.45;14.75;;;22.60;99.90;;;;;;5086919;28;20440;-57
2022/07/21 10:22:47;;;;;;;15.63;12.88;;;22.60;99.90;;;;;;5085371;28;20032;-56
2022/07/21 10:25:14;;;;;;;16.42;14.45;;;22.70;99.90;;;;;;5083428;28;20517;-58
2022/07/21 10:28:13;;;;;;;16.80;13.60;;;22.80;99.90;;;;;;5085719;28;20103;-57
2022/07/21 10:30:40;;;;;;;19.52;14.57;;;22.90;99.90;;;;;;5060491;28;20391;-56
2022/07/21 10:33:08;;;;;;;19.63;13.93;;;23.00;99.90;;;;;;5085169;28;20107;-56
2022/07/21 10:35:34;;;;;;;16.08;13.57;;;23.10;99.90;;;;;;5062088;28;20092;-57
2022/07/21 10:38:02;;;;;;;18.30;14.85;;;23.20;99.90;;;;;;5066364;28;20634;-57
2022/07/21 10:40:28;;;;;;;18.92;14.52;;;23.40;99.90;;;;;;5069163;28;20107;-59
2022/07/21 10:42:59;;;;;;;18.98;13.77;;;23.50;99.90;;;;;;5083609;28;20016;-58
2022/07/21 10:45:36;;;;;;;18.13;13.57;;;23.60;99.90;;;;;;5070926;28;20032;-57
2022/07/21 10:48:04;;;;;;;16.52;14.60;;;23.70;99.90;;;;;;5086938;28;20025;-56
2022/07/21 10:50:39;;;;;;;15.23;12.88;;;23.60;99.90;;;;;;5092548;28;20028;-58
2022/07/21 10:53:11;;;;;;;15.07;11.77;;;23.70;99.90;;;;;;5091447;28;20035;-57
2022/07/21 10:55:38;;;;;;;12.68;11.23;;;23.80;99.90;;;;;;5088399;28;20787;-56
2022/07/21 10:58:25;;;;;;;15.25;13.57;;;23.90;99.90;;;;;;5090687;28;20024;-62
2022/07/21 11:00:53;;;;;;;12.80;11.50;;;23.90;99.90;;;;;;5087329;28;20024;-59
2022/07/21 11:03:25;;;;;;;11.45;10.35;;;24.00;99.90;;;;;;5090379;28;20107;-58
2022/07/21 11:06:05;;;;;;;11.90;10.70;;;23.90;99.90;;;;;;5067785;28;20072;-58
2022/07/21 11:08:42;;;;;;;10.68;9.63;;;23.90;99.90;;;;;;5069048;28;20450;-58
2022/07/21 11:11:20;;;;;;;13.57;10.40;;;23.80;99.90;;;;;;5087254;28;20028;-59
2022/07/21 11:14:07;;;;;;;10.23;9.20;;;23.80;99.90;;;;;;5066260;28;20039;-59
2022/07/21 11:17:02;;;;;;;12.35;10.50;;;23.90;99.90;;;;;;5087636;28;20024;-60
2022/07/21 11:19:49;;;;;;;12.23;10.45;;;23.80;99.90;;;;;;5056592;28;20051;-58
2022/07/21 11:22:20;;;;;;;9.75;8.23;;;23.80;99.90;;;;;;5091411;28;20024;-60
2022/07/21 11:24:49;;;;;;;7.75;7.03;;;23.80;99.90;;;;;;5090641;28;20494;-59
2022/07/21 11:27:20;;;;;;;9.10;8.30;;;23.90;99.90;;;;;;5090559;28;20028;-59
2022/07/21 11:29:48;;;;;;;7.78;7.07;;;23.90;99.90;;;;;;5091247;28;20020;-60
2022/07/21 11:32:16;;;;;;;8.00;7.22;;;23.90;99.90;;;;;;5086587;28;20020;-57
2022/07/21 11:34:43;;;;;;;7.40;6.43;;;23.90;99.90;;;;;;5072721;28;20028;-59
2022/07/21 11:37:11;;;;;;;7.25;6.55;;;24.00;99.90;;;;;;5089344;28;20067;-58
2022/07/21 11:39:37;;;;;;;7.70;6.80;;;24.20;99.90;;;;;;5068914;28;20035;-57
2022/07/21 11:42:09;;;;;;;7.93;7.13;;;24.20;99.90;;;;;;5089110;28;20047;-59
2022/07/21 11:44:35;;;;;;;8.48;7.32;;;24.20;99.90;;;;;;5071560;28;20028;-58
2022/07/21 11:47:02;;;;;;;9.55;7.65;;;24.30;99.90;;;;;;5090076;28;20050;-59
2022/07/21 11:49:28;;;;;;;8.63;6.63;;;24.30;99.90;;;;;;5071488;28;20112;-57
2022/07/21 11:52:06;;;;;;;6.38;5.75;;;24.30;99.90;;;;;;5089384;28;20460;-61
2022/07/21 11:54:57;;;;;;;7.78;7.07;;;24.20;99.90;;;;;;5089577;28;20237;-59
2022/07/21 11:57:24;;;;;;;8.20;7.40;;;24.20;99.90;;;;;;5087418;28;20512;-58
2022/07/21 11:59:52;;;;;;;6.53;5.93;;;24.30;99.90;;;;;;5089259;28;20028;-59
2022/07/21 12:02:26;;;;;;;6.40;5.85;;;24.40;99.90;;;;;;5087285;28;20159;-56
2022/07/21 12:04:57;;;;;;;6.97;6.25;;;24.50;99.90;;;;;;5071584;28;20401;-57
2022/07/21 12:07:27;;;;;;;5.43;4.72;;;24.80;99.90;;;;;;5087026;28;20107;-58
2022/07/21 12:09:59;;;;;;;6.25;4.95;;;25.00;99.90;;;;;;5089755;28;20654;-57
2022/07/21 12:12:45;;;;;;;5.40;4.90;;;25.20;99.90;;;;;;5071157;28;20550;-60
2022/07/21 12:15:20;;;;;;;4.78;4.15;;;25.30;99.90;;;;;;5070560;28;20036;-59
2022/07/21 12:17:57;;;;;;;4.57;4.18;;;25.30;99.90;;;;;;5069469;28;20026;-59
2022/07/21 12:20:37;;;;;;;4.85;4.38;;;25.40;99.90;;;;;;5087454;28;20160;-59
2022/07/21 12:23:18;;;;;;;4.30;4.00;;;25.50;99.90;;;;;;5089298;28;20052;-59
2022/07/21 12:25:45;;;;;;;3.95;3.55;;;25.50;99.90;;;;;;5087326;28;20042;-58
2022/07/21 12:28:10;;;;;;;4.25;3.63;;;25.60;99.90;;;;;;5071070;28;20445;-57
2022/07/21 12:30:41;;;;;;;4.00;3.40;;;25.50;99.90;;;;;;5089581;28;20023;-58
2022/07/21 12:33:14;;;;;;;4.57;3.78;;;25.60;99.90;;;;;;5086918;28;20103;-59
2022/07/21 12:35:43;;;;;;;3.60;3.28;;;25.50;99.90;;;;;;5087414;28;20477;-59
2022/07/21 12:38:14;;;;;;;3.42;3.20;;;25.50;99.90;;;;;;5088991;28;20498;-60
2022/07/21 12:40:43;;;;;;;4.38;4.00;;;25.60;99.90;;;;;;5089506;28;20117;-60